Morningside, Maryland
Current Conditions -  °F | °C
As of 5:55 AM on Saturday 20 Dec 2014 (Local Time) from KADW Reporting Station
Clear Clear  
Wind Chill: 16°   Ceiling: Unl
Heat Index: 23°   Visibility: 10mi
Dew Point: 18°   Wind: 6mph
Humidity: 81%   Direction: 320°NW
Pressure: 30.27"   Gusts: NA
Location:  38.8377°N, 76.9193°W
Report Text: KADW 201055Z 32005KT 10SM CLR M05/M08 A3027 RMK AO2A SLP255 T10481076
Loading
Personal Weather Stations






























Interactive Weather Map New forecast layout! Learn more

10-Day Weather Forecast

Advertisements
Track Severe Weather on mobile